Time;durP1;ratioP1;P1;durP2;ratioP2;P2;SDS_P1;SDS_P2;PMS_P1;PMS_P2;Temp;Humidity;BMP_temperature;BMP_pressure;BME280_temperature;BME280_humidity;BME280_pressure;Samples;Min_cycle;Max_cycle;Signal;HPM_P1;HPM_P2
2022/05/16 00:02:13;;;;;;;6.75;2.60;;;;;;;11.35;70.60;100660.55;1719481;82;21636;-43
2022/05/16 00:04:44;;;;;;;6.55;2.42;;;;;;;11.37;70.42;100665.27;1699744;82;21007;-42
2022/05/16 00:07:11;;;;;;;9.73;2.12;;;;;;;11.37;69.91;100661.38;1721145;82;20991;-43
2022/05/16 00:09:38;;;;;;;6.40;2.60;;;;;;;11.42;68.95;100657.42;1723937;83;21431;-43
2022/05/16 00:12:07;;;;;;;6.72;2.27;;;;;;;11.48;68.68;100659.42;1721754;82;20982;-43
2022/05/16 00:14:34;;;;;;;12.60;2.45;;;;;;;11.47;68.75;100656.88;1699253;83;21478;-43
2022/05/16 00:17:01;;;;;;;4.83;2.05;;;;;;;11.44;69.24;100655.19;1724096;83;20964;-43
2022/05/16 00:19:29;;;;;;;8.43;2.17;;;;;;;11.40;69.11;100656.59;1723851;83;20995;-43
2022/05/16 00:21:57;;;;;;;7.47;2.00;;;;;;;11.35;69.28;100651.48;1723360;82;21256;-43
2022/05/16 00:24:26;;;;;;;5.85;2.20;;;;;;;11.33;69.57;100652.80;1702061;82;21026;-42
2022/05/16 00:26:53;;;;;;;9.48;2.85;;;;;;;11.28;69.69;100655.08;1721093;83;20995;-43
2022/05/16 00:29:20;;;;;;;8.23;2.17;;;;;;;11.19;70.16;100658.23;1722442;82;20940;-43
2022/05/16 00:31:47;;;;;;;6.00;2.45;;;;;;;11.11;70.66;100663.13;1722512;82;20980;-43
2022/05/16 00:34:16;;;;;;;3.87;2.70;;;;;;;11.04;71.03;100659.81;1721078;82;21198;-43
2022/05/16 00:36:46;;;;;;;7.10;2.40;;;;;;;10.96;71.36;100657.77;1720628;82;21458;-43
2022/05/16 00:39:11;;;;;;;6.20;1.92;;;;;;;10.95;71.29;100671.18;1720169;82;20992;-42
2022/05/16 00:41:42;;;;;;;3.55;1.92;;;;;;;10.91;72.04;100670.82;1720237;83;21141;-43
2022/05/16 00:44:09;;;;;;;4.90;2.30;;;;;;;10.88;72.14;100671.71;1719432;82;20983;-43
2022/05/16 00:46:37;;;;;;;5.00;2.50;;;;;;;10.80;72.30;100669.70;1720340;82;21307;-43
2022/05/16 00:49:08;;;;;;;6.58;2.37;;;;;;;10.76;72.76;100667.58;1720987;82;20952;-42
2022/05/16 00:51:39;;;;;;;10.00;1.90;;;;;;;10.74;72.85;100674.52;1722219;82;21387;-43
2022/05/16 00:54:21;;;;;;;3.40;2.08;;;;;;;10.69;72.97;100670.28;1723920;83;20866;-43
2022/05/16 00:56:51;;;;;;;3.55;2.40;;;;;;;10.62;73.04;100679.45;1722468;82;21493;-43
2022/05/16 00:59:19;;;;;;;3.60;2.50;;;;;;;10.59;73.18;100678.20;1721303;83;21102;-43
2022/05/16 01:04:48;;;;;;;5.08;2.60;;;;;;;10.44;74.05;100688.77;1724102;82;20943;-43
2022/05/16 01:07:27;;;;;;;5.70;2.55;;;;;;;10.39;73.95;100699.59;1703078;82;21552;-43
2022/05/16 01:09:54;;;;;;;4.30;2.30;;;;;;;10.36;74.09;100697.92;1699812;83;21051;-44
2022/05/16 01:12:25;;;;;;;5.90;2.25;;;;;;;10.29;74.62;100698.44;1721570;83;21069;-43
2022/05/16 01:14:54;;;;;;;5.67;1.87;;;;;;;10.21;75.03;100702.41;1701819;82;20944;-42
2022/05/16 01:17:21;;;;;;;4.85;2.05;;;;;;;10.13;75.39;100695.63;1720640;82;21003;-43
2022/05/16 01:21:48;;;;;;;8.08;2.00;;;;;;;10.11;76.23;100699.96;1798421;79;22516;-42
2022/05/16 01:24:16;;;;;;;7.33;2.15;;;;;;;10.04;76.52;100702.63;1758154;80;20964;-41
2022/05/16 01:26:44;;;;;;;3.70;1.70;;;;;;;10.00;77.04;100700.97;1758069;81;21079;-41
2022/05/16 01:29:11;;;;;;;5.10;2.00;;;;;;;9.93;77.39;100709.64;1758109;81;20948;-41
2022/05/16 01:31:38;;;;;;;5.28;1.85;;;;;;;9.88;77.68;100712.73;1758120;81;21019;-41
2022/05/16 01:34:04;;;;;;;8.03;1.67;;;;;;;9.85;77.89;100723.11;1695989;83;20982;-42
2022/05/16 01:36:31;;;;;;;6.10;1.82;;;;;;;9.84;77.88;100725.27;1695963;83;21023;-42
2022/05/16 01:38:58;;;;;;;8.48;2.00;;;;;;;9.85;77.87;100724.40;1696258;83;21362;-41
2022/05/16 01:41:26;;;;;;;6.08;1.98;;;;;;;9.85;78.05;100723.11;1724608;83;20932;-41
2022/05/16 01:43:56;;;;;;;8.55;2.00;;;;;;;9.82;78.24;100728.31;1723208;83;21427;-42
2022/05/16 01:46:27;;;;;;;3.22;1.90;;;;;;;9.75;78.48;100728.81;1716543;82;20991;-42
2022/05/16 01:48:54;;;;;;;4.37;2.20;;;;;;;9.70;78.83;100724.97;1708878;84;21016;-43
2022/05/16 01:51:21;;;;;;;2.75;1.52;;;;;;;9.67;79.22;100730.17;1709118;84;21184;-43
2022/05/16 01:53:49;;;;;;;6.05;1.67;;;;;;;9.62;79.71;100724.20;1709236;84;20979;-43
2022/05/16 01:56:16;;;;;;;3.20;1.77;;;;;;;9.59;80.04;100730.25;1681064;84;21011;-43
2022/05/16 01:58:44;;;;;;;4.45;1.82;;;;;;;9.56;79.97;100740.62;1709169;83;20999;-42
2022/05/16 02:01:11;;;;;;;6.30;1.75;;;;;;;9.53;80.27;100744.98;1709109;84;20960;-42
2022/05/16 02:03:41;;;;;;;5.85;1.72;;;;;;;9.49;79.96;100742.43;1709203;84;21186;-42
2022/05/16 02:06:08;;;;;;;8.28;1.62;;;;;;;9.44;80.00;100748.05;1708992;83;20973;-42
2022/05/16 02:08:35;;;;;;;6.80;1.67;;;;;;;9.38;80.45;100748.11;1709162;84;20923;-42
2022/05/16 02:11:04;;;;;;;5.80;1.82;;;;;;;9.32;80.78;100752.89;1709077;84;20939;-43
2022/05/16 02:13:33;;;;;;;2.45;1.40;;;;;;;9.25;80.75;100754.27;1709007;84;20960;-42
2022/05/16 02:16:00;;;;;;;7.60;1.55;;;;;;;9.20;81.42;100753.84;1709294;84;21156;-43
2022/05/16 02:18:27;;;;;;;3.35;1.35;;;;;;;9.19;81.43;100752.59;1708813;84;21023;-42
2022/05/16 02:24:38;;;;;;;8.35;2.00;;;;;;;9.13;81.60;100757.81;1705274;83;20955;-42
2022/05/16 02:26:09;;;;;;;3.87;1.45;;;;;;;9.06;82.62;100759.12;1702073;84;20932;-42
2022/05/16 02:28:37;;;;;;;3.12;1.57;;;;;;;9.06;83.30;100762.16;1711764;82;21061;-43
2022/05/16 02:31:04;;;;;;;3.95;1.57;;;;;;;9.09;83.46;100754.80;1701845;84;20963;-42
2022/05/16 02:33:30;;;;;;;5.15;1.50;;;;;;;9.10;83.50;100764.29;1711257;83;20904;-43
2022/05/16 02:35:57;;;;;;;5.65;1.50;;;;;;;9.13;83.33;100760.39;1701679;84;21503;-43
2022/05/16 02:38:24;;;;;;;4.40;1.67;;;;;;;9.15;83.23;100768.53;1711186;83;20951;-43
2022/05/16 02:40:51;;;;;;;3.85;1.40;;;;;;;9.16;83.56;100767.66;1701575;84;21762;-43
2022/05/16 02:43:18;;;;;;;3.42;1.60;;;;;;;9.16;83.50;100769.41;1711306;83;20924;-42
2022/05/16 02:45:46;;;;;;;1.25;1.02;;;;;;;9.14;83.66;100766.81;1701464;84;21035;-42
2022/05/16 02:48:12;;;;;;;3.12;1.70;;;;;;;9.12;83.92;100765.13;1711242;82;20959;-42
2022/05/16 02:50:39;;;;;;;5.78;1.77;;;;;;;9.11;83.76;100772.01;1657283;85;20934;-43
2022/05/16 02:53:07;;;;;;;2.10;1.12;;;;;;;9.11;83.81;100770.72;1701509;84;21144;-43
2022/05/16 02:55:34;;;;;;;3.17;0.95;;;;;;;9.15;83.91;100773.70;1711118;83;20952;-43
2022/05/16 02:58:01;;;;;;;7.05;1.47;;;;;;;9.18;83.87;100779.28;1701749;84;21597;-42
2022/05/16 03:00:29;;;;;;;2.50;1.37;;;;;;;9.21;83.86;100779.26;1711211;83;20940;-43
2022/05/16 03:02:55;;;;;;;2.67;1.40;;;;;;;9.26;84.02;100784.40;1682573;84;20974;-43
2022/05/16 03:05:22;;;;;;;3.08;1.15;;;;;;;9.27;83.79;100782.23;1701589;84;21127;-43
2022/05/16 03:07:49;;;;;;;2.75;1.30;;;;;;;9.30;84.01;100792.09;1711083;83;20896;-43
2022/05/16 03:10:16;;;;;;;5.40;1.42;;;;;;;9.33;83.79;100789.93;1701602;84;20996;-42
2022/05/16 03:12:45;;;;;;;8.08;1.30;;;;;;;9.36;84.30;100792.48;1711270;83;20979;-42
2022/05/16 03:15:13;;;;;;;6.15;1.85;;;;;;;9.39;84.30;100794.20;1701332;83;21043;-43
2022/05/16 03:17:40;;;;;;;4.75;1.37;;;;;;;9.41;84.35;100798.92;1710980;83;21049;-43
2022/05/16 03:20:12;;;;;;;5.30;1.30;;;;;;;9.44;84.52;100798.44;1702378;83;20904;-42
2022/05/16 03:22:39;;;;;;;6.53;1.27;;;;;;;9.47;84.32;100795.86;1721661;83;20948;-42
2022/05/16 03:25:06;;;;;;;5.25;1.27;;;;;;;9.54;84.17;100798.38;1667065;84;20979;-42
2022/05/16 03:27:33;;;;;;;7.08;1.12;;;;;;;9.61;83.89;100800.03;1693067;84;21707;-42
2022/05/16 03:30:00;;;;;;;6.87;1.40;;;;;;;9.68;83.24;100804.72;1693145;84;21106;-42
2022/05/16 03:32:27;;;;;;;2.77;1.27;;;;;;;9.75;82.61;100811.54;1692740;84;20951;-43
2022/05/16 03:34:54;;;;;;;4.58;1.22;;;;;;;9.85;82.41;100807.14;1692815;84;20954;-42
2022/05/16 03:37:22;;;;;;;2.60;1.12;;;;;;;9.93;82.24;100810.50;1692725;84;20921;-42
2022/05/16 03:42:34;;;;;;;2.05;1.20;;;;;;;10.06;81.77;100803.05;1692974;83;21051;-42
2022/05/16 03:45:01;;;;;;;1.98;1.30;;;;;;;10.16;81.46;100810.27;1692958;84;21438;-42
2022/05/16 03:47:27;;;;;;;6.85;1.45;;;;;;;10.26;81.68;100809.73;1687162;83;20911;-42
2022/05/16 03:49:54;;;;;;;1.90;1.00;;;;;;;10.43;81.23;100812.57;1703286;84;20932;-42
2022/05/16 03:52:21;;;;;;;2.47;1.30;;;;;;;10.66;80.68;100808.84;1721658;83;21015;-42
2022/05/16 03:54:48;;;;;;;8.25;1.42;;;;;;;10.92;79.07;100814.52;1667241;84;21145;-42
2022/05/16 03:57:14;;;;;;;4.85;1.10;;;;;;;11.22;78.85;100811.51;1694944;83;21538;-42
2022/05/16 03:59:42;;;;;;;2.12;1.20;;;;;;;11.53;77.67;100819.25;1721588;82;20947;-42
2022/05/16 04:02:09;;;;;;;4.22;1.35;;;;;;;11.83;75.95;100817.84;1692838;84;21018;-42
2022/05/16 04:04:37;;;;;;;1.65;1.00;;;;;;;12.10;75.29;100817.41;1722161;83;20898;-42
2022/05/16 04:07:04;;;;;;;6.55;1.37;;;;;;;12.31;73.44;100813.09;1692522;84;20994;-43
2022/05/16 04:09:30;;;;;;;2.37;0.82;;;;;;;12.53;72.34;100819.58;1667001;84;20895;-43
2022/05/16 04:11:57;;;;;;;2.00;0.90;;;;;;;12.72;71.74;100813.55;1721719;83;20978;-43
2022/05/16 04:14:25;;;;;;;4.17;0.95;;;;;;;12.82;69.18;100818.97;1692702;84;20963;-43
2022/05/16 04:16:51;;;;;;;3.58;0.75;;;;;;;12.92;69.41;100824.36;1692907;84;21572;-43
2022/05/16 04:19:18;;;;;;;10.03;1.00;;;;;;;13.13;68.04;100826.06;1693238;84;21126;-43
2022/05/16 04:21:45;;;;;;;4.42;1.00;;;;;;;13.19;66.20;100826.38;1673324;85;21500;-42
2022/05/16 04:24:11;;;;;;;2.87;1.07;;;;;;;13.22;66.33;100826.30;1668188;86;20928;-43
2022/05/16 04:26:38;;;;;;;1.22;1.00;;;;;;;13.24;65.52;100829.72;1708608;83;20971;-43
2022/05/16 04:29:05;;;;;;;2.72;1.30;;;;;;;13.31;66.19;100833.03;1695871;84;20956;-42
2022/05/16 04:31:32;;;;;;;3.27;0.93;;;;;;;13.37;64.49;100828.98;1695969;84;21054;-43
2022/05/16 04:33:58;;;;;;;7.25;0.80;;;;;;;13.43;65.21;100835.36;1695846;84;20877;-43
2022/05/16 04:36:25;;;;;;;0.82;0.82;;;;;;;13.50;65.12;100827.80;1695995;84;20948;-43
2022/05/16 04:38:52;;;;;;;1.57;1.02;;;;;;;13.59;64.53;100830.63;1696001;84;21025;-42
2022/05/16 04:44:05;;;;;;;5.95;0.95;;;;;;;13.58;65.00;100831.98;1695750;84;22133;-42
2022/05/16 04:46:32;;;;;;;4.45;1.00;;;;;;;13.68;64.37;100837.34;1666317;84;21063;-43
2022/05/16 04:48:59;;;;;;;8.78;1.00;;;;;;;13.79;65.13;100830.57;1695947;84;20912;-42
2022/05/16 04:51:25;;;;;;;3.37;1.37;;;;;;;14.01;64.37;100830.84;1695644;84;21470;-43
2022/05/16 04:53:53;;;;;;;2.95;1.00;;;;;;;14.20;63.62;100835.56;1695787;84;21021;-43
2022/05/16 04:56:19;;;;;;;2.75;0.93;;;;;;;14.31;63.32;100832.23;1696150;84;21333;-43
2022/05/16 04:58:46;;;;;;;3.65;0.85;;;;;;;14.31;63.43;100828.75;1695706;84;21009;-43
2022/05/16 05:01:13;;;;;;;8.20;0.95;;;;;;;14.32;62.74;100826.13;1695890;84;21012;-43
2022/05/16 05:03:42;;;;;;;2.10;0.88;;;;;;;14.37;63.13;100828.14;1696000;84;21001;-43
2022/05/16 05:06:09;;;;;;;1.72;1.10;;;;;;;14.55;63.96;100828.52;1695933;84;21007;-43
2022/05/16 05:08:36;;;;;;;3.12;1.10;;;;;;;14.78;62.15;100821.81;1695939;83;21236;-43
2022/05/16 05:16:35;;;;;;;1.75;0.85;;;;;;;15.15;61.08;100834.99;1696020;84;21522;-43
2022/05/16 05:19:01;;;;;;;6.20;0.78;;;;;;;15.25;59.43;100835.99;1695892;84;20994;-43
2022/05/16 05:21:29;;;;;;;1.92;1.55;;;;;;;15.20;59.43;100840.07;1697769;83;21241;-43
2022/05/16 05:23:56;;;;;;;3.35;1.07;;;;;;;15.25;58.88;100838.60;1711007;84;20999;-43
2022/05/16 05:26:22;;;;;;;3.20;1.12;;;;;;;15.42;59.60;100840.69;1701517;84;21597;-42
2022/05/16 05:28:49;;;;;;;5.28;0.82;;;;;;;15.62;59.01;100843.47;1710973;84;20868;-43
2022/05/16 05:31:18;;;;;;;2.85;0.90;;;;;;;15.69;58.19;100842.81;1701484;84;20913;-43
2022/05/16 05:33:45;;;;;;;2.70;1.40;;;;;;;15.77;57.34;100842.56;1711050;82;21294;-42
2022/05/16 05:36:12;;;;;;;3.77;1.10;;;;;;;15.80;56.57;100839.84;1701137;84;21071;-43
2022/05/16 05:38:39;;;;;;;2.75;1.42;;;;;;;15.81;57.00;100840.25;1710985;84;20991;-43
2022/05/16 05:41:07;;;;;;;3.40;1.30;;;;;;;15.87;56.64;100834.80;1701375;84;20979;-43
2022/05/16 05:43:34;;;;;;;2.75;1.10;;;;;;;15.81;55.13;100840.25;1711148;82;20901;-42
2022/05/16 05:46:02;;;;;;;1.80;0.95;;;;;;;15.84;55.28;100845.83;1701425;84;21322;-43
2022/05/16 05:48:29;;;;;;;3.22;1.32;;;;;;;15.97;55.93;100842.38;1710874;83;20948;-43
2022/05/16 05:50:56;;;;;;;2.02;0.98;;;;;;;16.07;54.69;100842.00;1701415;84;20964;-43
2022/05/16 05:53:22;;;;;;;2.70;0.80;;;;;;;16.11;54.31;100836.66;1710966;84;20979;-43
2022/05/16 05:55:50;;;;;;;1.40;0.80;;;;;;;16.02;54.10;100852.20;1701411;84;21070;-43
2022/05/16 05:58:17;;;;;;;3.15;0.78;;;;;;;16.07;55.42;100839.82;1711048;83;21191;-43
2022/05/16 06:00:44;;;;;;;7.90;0.60;;;;;;;16.16;54.13;100846.48;1701360;84;21015;-43
2022/05/16 06:03:11;;;;;;;2.55;1.02;;;;;;;16.07;54.28;100851.13;1684900;84;21505;-43
2022/05/16 06:05:38;;;;;;;1.40;1.02;;;;;;;16.08;54.20;100846.31;1701407;84;21030;-43
2022/05/16 06:08:05;;;;;;;4.85;1.00;;;;;;;16.01;54.46;100851.80;1711366;83;21544;-43
2022/05/16 06:10:32;;;;;;;3.35;0.85;;;;;;;16.10;55.63;100850.16;1675510;84;21252;-43
2022/05/16 06:13:01;;;;;;;2.52;1.30;;;;;;;16.26;55.92;100850.45;1711109;83;20915;-43
2022/05/16 06:15:28;;;;;;;4.47;0.80;;;;;;;16.40;56.53;100852.56;1701608;84;20925;-43
2022/05/16 06:17:55;;;;;;;1.32;1.17;;;;;;;16.37;56.65;100842.23;1711224;83;20896;-43
2022/05/16 06:20:22;;;;;;;2.42;0.80;;;;;;;16.50;56.40;100847.42;1701646;83;21564;-43
2022/05/16 06:22:48;;;;;;;2.70;1.10;;;;;;;16.42;57.86;100849.47;1702983;83;21122;-43
2022/05/16 06:25:33;;;;;;;5.62;1.07;;;;;;;16.27;57.77;100853.47;1696131;84;21569;-43
2022/05/16 06:28:07;;;;;;;4.35;1.30;;;;;;;16.01;58.83;100857.85;1695901;84;21490;-43
2022/05/16 06:30:37;;;;;;;;;;;;;;;15.91;58.73;100857.78;1698527;84;20913;-43
2022/05/16 06:33:04;;;;;;;6.85;1.42;;;;;;;15.89;57.84;100858.30;1696245;84;20488;-43
2022/05/16 06:35:33;;;;;;;4.87;1.70;;;;;;;15.89;57.95;100857.82;1695882;84;21248;-42
2022/05/16 06:38:12;;;;;;;8.33;2.55;;;;;;;15.86;57.78;100857.06;1696012;84;20968;-43
2022/05/16 06:40:42;;;;;;;7.85;1.67;;;;;;;15.54;59.00;100854.63;1695897;84;21526;-44
2022/05/16 06:43:09;;;;;;;3.52;1.92;;;;;;;15.30;61.02;100861.50;1695939;83;21031;-44
2022/05/16 06:45:37;;;;;;;7.87;1.90;;;;;;;15.33;60.25;100861.40;1695866;84;20913;-43
2022/05/16 06:48:06;;;;;;;12.98;2.15;;;;;;;15.44;59.52;100861.05;1696118;84;21242;-43
2022/05/16 06:50:33;;;;;;;6.22;2.40;;;;;;;15.59;59.63;100854.48;1695887;84;21016;-43
2022/05/16 06:53:00;;;;;;;2.45;1.80;;;;;;;15.85;60.75;100856.66;1696005;84;21012;-43
2022/05/16 06:55:27;;;;;;;4.25;1.80;;;;;;;16.15;57.79;100851.31;1695999;83;20968;-43
2022/05/16 06:57:53;;;;;;;6.80;1.52;;;;;;;16.33;57.43;100856.31;1695718;83;21490;-44
2022/05/16 07:00:21;;;;;;;2.85;1.55;;;;;;;16.49;56.34;100852.25;1695943;84;21127;-43
2022/05/16 07:02:48;;;;;;;2.72;1.20;;;;;;;16.61;56.48;100850.94;1695804;84;21008;-43
2022/05/16 07:05:15;;;;;;;3.08;1.50;;;;;;;16.76;55.40;100852.56;1695938;84;20960;-45
2022/05/16 07:07:42;;;;;;;2.02;1.32;;;;;;;17.00;55.81;100859.96;1696019;84;20968;-44
2022/05/16 07:10:10;;;;;;;3.87;1.32;;;;;;;17.02;53.75;100858.58;1695976;84;21443;-43
2022/05/16 07:12:37;;;;;;;5.83;1.22;;;;;;;17.04;52.99;100854.13;1695943;84;21239;-44
2022/05/16 07:15:05;;;;;;;7.15;1.52;;;;;;;17.15;51.98;100864.17;1695766;84;20905;-44
2022/05/16 07:17:32;;;;;;;3.50;1.20;;;;;;;17.26;50.87;100863.31;1695800;84;21598;-43
2022/05/16 07:19:59;;;;;;;3.87;1.20;;;;;;;17.24;50.59;100859.91;1695925;84;20964;-44
2022/05/16 07:22:26;;;;;;;3.58;1.35;;;;;;;17.41;50.85;100861.84;1695991;84;21023;-44
2022/05/16 07:24:55;;;;;;;2.30;1.02;;;;;;;17.55;50.86;100855.16;1695996;83;21100;-44
2022/05/16 07:30:10;;;;;;;3.62;1.15;;;;;;;17.61;50.04;100860.17;1696069;84;26554;-44
2022/05/16 07:32:43;;;;;;;1.37;1.12;;;;;;;17.69;47.18;100856.77;1695879;84;21594;-44
2022/05/16 07:35:17;;;;;;;2.80;1.17;;;;;;;17.83;47.34;100863.20;1695828;83;21009;-44
2022/05/16 07:37:47;;;;;;;3.40;1.15;;;;;;;17.79;46.01;100855.92;1695884;84;21034;-43
2022/05/16 07:40:16;;;;;;;3.45;1.07;;;;;;;17.85;46.77;100861.37;1695700;84;21011;-43
2022/05/16 07:42:44;;;;;;;2.20;1.10;;;;;;;17.86;46.89;100857.83;1695853;84;21522;-43
2022/05/16 07:45:11;;;;;;;6.90;1.92;;;;;;;17.63;46.09;100860.95;1695965;83;21026;-43
2022/05/16 07:47:38;;;;;;;6.28;1.47;;;;;;;17.51;45.96;100867.08;1695643;84;21403;-43
2022/05/16 07:50:07;;;;;;;6.42;1.20;;;;;;;17.66;47.88;100865.59;1695959;83;21149;-43
2022/05/16 07:52:34;;;;;;;3.22;1.70;;;;;;;17.85;47.52;100871.84;1695844;84;20968;-43
2022/05/16 07:55:01;;;;;;;9.33;1.12;;;;;;;18.00;47.23;100862.00;1695870;84;20961;-44
2022/05/16 07:57:28;;;;;;;4.95;1.00;;;;;;;18.08;46.07;100865.63;1695698;84;20925;-43
2022/05/16 07:59:55;;;;;;;3.80;1.55;;;;;;;18.13;46.47;100865.44;1696016;83;21004;-43
2022/05/16 08:02:22;;;;;;;2.67;1.05;;;;;;;18.20;46.15;100872.11;1695959;83;21867;-44
2022/05/16 08:04:49;;;;;;;2.17;1.22;;;;;;;18.24;45.82;100873.66;1695831;84;20964;-44
2022/05/16 08:07:15;;;;;;;5.80;1.37;;;;;;;18.21;43.40;100868.13;1695897;84;20960;-43
2022/05/16 08:12:32;;;;;;;5.28;1.40;;;;;;;18.02;44.06;100869.36;1695953;83;20953;-43
2022/05/16 08:15:00;;;;;;;5.45;1.10;;;;;;;17.94;44.42;100865.76;1695797;84;21076;-43
2022/05/16 08:17:28;;;;;;;4.50;0.98;;;;;;;18.04;44.67;100858.36;1695837;84;20940;-44
2022/05/16 08:20:00;;;;;;;1.40;1.30;;;;;;;18.31;44.69;100871.16;1695717;84;20956;-44
2022/05/16 08:22:30;;;;;;;1.95;1.30;;;;;;;18.31;43.08;100866.39;1702404;83;20974;-43
2022/05/16 08:24:56;;;;;;;2.22;0.90;;;;;;;18.18;43.01;100865.61;1721586;83;20975;-43
2022/05/16 08:27:23;;;;;;;6.28;0.90;;;;;;;18.16;43.68;100865.30;1692675;83;21258;-43
2022/05/16 08:29:50;;;;;;;3.40;0.88;;;;;;;18.29;40.07;100861.69;1721804;83;20954;-44
2022/05/16 08:32:20;;;;;;;2.98;0.98;;;;;;;18.23;40.32;100871.52;1703225;84;20968;-44
2022/05/16 08:34:47;;;;;;;3.70;0.80;;;;;;;18.26;41.60;100867.90;1703108;84;21051;-44
2022/05/16 08:40:04;;;;;;;4.40;1.10;;;;;;;18.35;40.43;100864.89;1703304;84;21210;-43
2022/05/16 08:42:56;;;;;;;3.05;1.62;;;;;;;18.42;40.95;100868.53;1702319;84;21550;-43
2022/05/16 08:45:41;;;;;;;1.95;1.00;;;;;;;18.69;41.37;100870.34;1702808;84;20992;-43
2022/05/16 08:48:27;;;;;;;1.47;1.15;;;;;;;18.70;40.45;100868.59;1678436;84;21000;-42
2022/05/16 08:51:05;;;;;;;2.22;0.82;;;;;;;18.41;40.02;100865.53;1703041;84;21004;-43
2022/05/16 08:53:42;;;;;;;1.27;0.90;;;;;;;18.33;40.62;100868.04;1703250;84;21872;-43
2022/05/16 08:56:11;;;;;;;1.22;0.90;;;;;;;18.28;40.40;100866.53;1703347;84;21534;-43
2022/05/16 08:58:58;;;;;;;3.15;1.02;;;;;;;18.28;41.71;100866.06;1703138;84;20968;-43
2022/05/16 09:01:31;;;;;;;2.02;1.10;;;;;;;18.49;41.29;100860.78;1703233;84;20952;-43
2022/05/16 09:04:12;;;;;;;4.25;0.82;;;;;;;18.56;41.40;100863.50;1703160;83;20956;-43
2022/05/16 09:07:15;;;;;;;2.05;1.15;;;;;;;18.50;39.21;100861.17;1660006;84;21047;-43
2022/05/16 09:10:02;;;;;;;1.35;0.70;;;;;;;18.35;39.94;100866.20;1692018;84;21026;-43
2022/05/16 09:12:41;;;;;;;1.98;0.82;;;;;;;18.64;40.65;100862.71;1692690;84;20947;-43
2022/05/16 09:15:23;;;;;;;6.25;1.30;;;;;;;18.83;39.82;100871.49;1692672;84;20948;-43
2022/05/16 09:18:24;;;;;;;1.65;0.95;;;;;;;18.73;38.65;100861.44;1692658;84;21548;-43
2022/05/16 09:21:14;;;;;;;2.40;1.10;;;;;;;18.58;39.12;100862.14;1692588;83;21386;-43
2022/05/16 09:24:04;;;;;;;2.55;1.20;;;;;;;18.56;39.32;100856.95;1721591;83;20887;-43
2022/05/16 09:27:09;;;;;;;3.27;0.80;;;;;;;18.74;38.94;100859.20;1691495;84;20951;-43
2022/05/16 09:29:42;;;;;;;5.85;0.90;;;;;;;18.84;37.83;100860.95;1691600;84;20975;-43
2022/05/16 09:32:37;;;;;;;1.15;0.55;;;;;;;18.90;35.66;100854.54;1692836;84;21252;-44
2022/05/16 09:35:07;;;;;;;1.37;0.70;;;;;;;18.88;37.10;100858.56;1692786;84;22270;-43
2022/05/16 09:37:33;;;;;;;4.12;0.82;;;;;;;19.05;36.79;100858.23;1664128;84;21557;-43
2022/05/16 09:40:01;;;;;;;1.55;0.75;;;;;;;19.16;35.15;100850.72;1692962;84;21429;-43
2022/05/16 09:42:33;;;;;;;2.55;0.53;;;;;;;19.27;35.06;100861.14;1692729;84;21046;-43
2022/05/16 09:45:12;;;;;;;1.05;0.50;;;;;;;19.16;34.23;100859.90;1692805;84;20943;-43
2022/05/16 09:47:42;;;;;;;5.45;0.70;;;;;;;18.91;35.17;100862.34;1662762;85;22186;-43
2022/05/16 09:50:23;;;;;;;1.20;0.75;;;;;;;19.00;35.94;100868.97;1698567;84;20988;-43
2022/05/16 09:53:09;;;;;;;1.42;0.42;;;;;;;19.01;34.48;100856.24;1698644;84;20889;-43
2022/05/16 09:55:47;;;;;;;2.42;0.90;;;;;;;18.83;33.57;100857.94;1698527;84;20972;-43
2022/05/16 09:58:22;;;;;;;1.67;0.95;;;;;;;18.85;34.99;100857.40;1695651;84;20995;-43
2022/05/16 10:01:00;;;;;;;0.78;0.50;;;;;;;18.97;34.21;100842.86;1698171;84;22247;-43
2022/05/16 10:03:33;;;;;;;3.20;0.80;;;;;;;19.16;34.06;100846.78;1698781;84;21012;-43
2022/05/16 10:06:05;;;;;;;1.05;0.42;;;;;;;19.32;33.89;100843.39;1670772;84;20936;-43
2022/05/16 10:08:42;;;;;;;0.50;0.50;;;;;;;19.44;32.93;100840.17;1698668;84;20904;-43
2022/05/16 10:11:14;;;;;;;0.95;0.50;;;;;;;19.48;32.30;100835.63;1670643;84;21023;-44
2022/05/16 10:13:40;;;;;;;0.80;0.70;;;;;;;19.34;32.45;100839.78;1698080;84;21497;-43
2022/05/16 10:16:08;;;;;;;1.07;0.60;;;;;;;19.22;32.92;100839.91;1698550;84;20960;-43
2022/05/16 10:18:57;;;;;;;0.62;0.50;;;;;;;19.38;32.62;100845.73;1670598;84;20977;-43
2022/05/16 10:21:39;;;;;;;2.85;0.72;;;;;;;19.32;31.97;100847.33;1698262;84;21012;-43
2022/05/16 10:24:09;;;;;;;0.60;0.50;;;;;;;19.34;32.65;100838.47;1653848;85;21002;-44
2022/05/16 10:26:42;;;;;;;2.40;0.45;;;;;;;19.54;32.65;100844.51;1673496;85;21302;-44
2022/05/16 10:29:15;;;;;;;1.12;0.60;;;;;;;19.62;32.63;100837.08;1673707;85;21579;-43
2022/05/16 10:34:37;;;;;;;2.10;0.55;;;;;;;19.51;32.07;100831.06;1673805;85;21436;-43
2022/05/16 10:37:03;;;;;;;3.30;0.60;;;;;;;19.60;32.91;100842.05;1674096;85;21503;-43
2022/05/16 10:39:31;;;;;;;3.37;0.60;;;;;;;19.59;32.80;100825.43;1673811;85;21201;-43
2022/05/16 10:42:17;;;;;;;2.22;0.60;;;;;;;19.67;32.26;100828.98;1673680;85;20981;-43
2022/05/16 10:44:53;;;;;;;2.27;0.50;;;;;;;19.68;31.08;100828.06;1703019;84;20905;-43
2022/05/16 10:47:27;;;;;;;0.42;0.42;;;;;;;19.75;30.76;100827.29;1669176;85;21003;-44
2022/05/16 10:50:06;;;;;;;3.17;0.57;;;;;;;19.71;31.11;100814.77;1741199;82;20968;-43
2022/05/16 10:52:47;;;;;;;3.17;0.50;;;;;;;19.95;30.44;100822.34;1740973;82;22025;-43
2022/05/16 10:55:13;;;;;;;2.65;0.60;;;;;;;19.83;31.86;100818.54;1740760;82;20976;-43
2022/05/16 10:58:30;;;;;;;2.77;0.60;;;;;;;19.98;31.23;100805.58;1740799;82;21016;-43
2022/05/16 11:01:13;;;;;;;1.30;0.65;;;;;;;19.91;30.72;100811.61;1741238;82;21515;-43
2022/05/16 11:04:05;;;;;;;3.75;0.57;;;;;;;19.68;29.68;100807.88;1741179;82;21493;-43
2022/05/16 11:06:58;;;;;;;0.60;0.60;;;;;;;19.56;31.11;100808.52;1740808;82;21156;-43
2022/05/16 11:09:50;;;;;;;1.92;0.55;;;;;;;19.64;31.33;100800.27;1740986;82;20909;-44
2022/05/16 11:12:35;;;;;;;0.95;0.55;;;;;;;19.88;30.28;100803.86;1741023;82;20953;-43
2022/05/16 11:15:26;;;;;;;0.53;0.53;;;;;;;19.87;30.45;100798.23;1741046;82;20986;-44
2022/05/16 11:18:31;;;;;;;4.45;0.70;;;;;;;20.01;31.84;100794.42;1741033;82;20984;-44
2022/05/16 11:21:09;;;;;;;2.72;0.75;;;;;;;20.29;32.77;100785.55;1714338;82;22014;-44
2022/05/16 11:24:10;;;;;;;3.25;0.70;;;;;;;20.64;29.71;100790.18;1744423;81;20933;-43
2022/05/16 11:26:59;;;;;;;2.10;0.40;;;;;;;20.48;30.12;100790.19;1749919;82;21019;-44
2022/05/16 11:29:36;;;;;;;8.10;0.60;;;;;;;20.41;29.59;100778.77;1749857;82;21038;-43
2022/05/16 11:32:23;;;;;;;1.10;0.62;;;;;;;20.44;30.66;100786.00;1750073;81;20921;-44
2022/05/16 11:35:16;;;;;;;3.20;0.65;;;;;;;20.31;31.22;100792.39;1749758;82;21097;-44
2022/05/16 11:38:06;;;;;;;2.05;0.50;;;;;;;20.42;30.46;100790.98;1750061;82;21457;-44
2022/05/16 11:40:49;;;;;;;9.08;0.70;;;;;;;20.37;29.25;100779.39;1749379;82;21470;-44
2022/05/16 11:43:29;;;;;;;0.70;0.60;;;;;;;20.31;30.51;100775.31;1749950;81;21075;-44
2022/05/16 11:46:20;;;;;;;5.58;0.40;;;;;;;20.48;31.07;100775.73;1749964;82;20968;-45
2022/05/16 11:49:22;;;;;;;0.40;0.37;;;;;;;20.66;30.08;100775.16;1749748;82;21219;-45
2022/05/16 11:52:27;;;;;;;0.80;0.50;;;;;;;20.58;29.80;100772.09;1750025;82;20833;-45
2022/05/16 12:00:31;;;;;;;2.65;0.50;;;;;;;20.39;30.81;100774.45;1749945;82;20955;-45
2022/05/16 12:03:08;;;;;;;6.15;0.72;;;;;;;20.66;30.62;100763.78;1749962;82;21135;-44
2022/05/16 12:05:44;;;;;;;7.12;0.65;;;;;;;20.64;30.73;100758.63;1726018;82;20979;-45
2022/05/16 12:08:28;;;;;;;8.23;0.82;;;;;;;20.71;30.16;100759.59;1749882;82;21525;-45
2022/05/16 12:11:10;;;;;;;0.98;0.50;;;;;;;20.64;30.21;100759.94;1749890;82;21182;-44
2022/05/16 12:13:59;;;;;;;1.95;0.50;;;;;;;20.61;30.65;100756.17;1749868;82;20988;-44
2022/05/16 12:16:32;;;;;;;1.45;0.57;;;;;;;20.74;29.00;100755.02;1750018;82;21256;-45
2022/05/16 12:19:16;;;;;;;2.27;0.50;;;;;;;20.85;29.94;100749.63;1749798;82;20944;-45
2022/05/16 12:21:47;;;;;;;2.00;0.60;;;;;;;21.03;30.96;100743.31;1749707;82;21007;-45
2022/05/16 12:24:30;;;;;;;2.70;0.62;;;;;;;21.05;30.97;100745.39;1726310;80;21474;-45